Alger, Ohio
Current Conditions -  °F | °C
As of 11:53 AM on Wednesday 26 Nov 2014 (Local Time) from KAOH Reporting Station
Overcast Overcast  
Wind Chill: -3°   Ceiling: 1900
Heat Index:   Visibility: 10mi
Dew Point: -6°   Wind: 6mph
Humidity: 66%   Direction: 80°E
Pressure: 30.1"   Gusts: NA
Location:  40.71°N, 83.84°W
Report Text: KAOH 261653Z AUTO 08005KT 10SM OVC019 00/M06 A3010 RMK AO2 SLP205 T00001056
Loading
Personal Weather Stations






























Interactive Weather Map New forecast layout! Learn more

10-Day Weather Forecast

Advertisements
Track Severe Weather on mobile